Time;durP1;ratioP1;P1;durP2;ratioP2;P2;SDS_P1;SDS_P2;PMS_P1;PMS_P2;Temp;Humidity;BMP_temperature;BMP_pressure;BME280_temperature;BME280_humidity;BME280_pressure;Samples;Min_cycle;Max_cycle;Signal;HPM_P1;HPM_P2
2024/03/15 00:00:05;;;;;;;6.15;4.25;;;13.70;99.90;;;;;;5079944;28;20035;-69
2024/03/15 00:02:31;;;;;;;11.98;4.65;;;13.70;99.90;;;;;;5076960;28;20430;-69
2024/03/15 00:04:57;;;;;;;9.25;4.68;;;13.80;99.90;;;;;;5088094;28;20662;-71
2024/03/15 00:07:24;;;;;;;10.85;4.80;;;13.70;99.90;;;;;;5087525;28;20098;-70
2024/03/15 00:09:50;;;;;;;10.75;4.75;;;13.70;99.90;;;;;;5086758;28;20459;-69
2024/03/15 00:12:15;;;;;;;7.43;4.13;;;13.70;99.90;;;;;;5079992;28;20103;-70
2024/03/15 00:14:44;;;;;;;8.18;4.70;;;13.70;99.90;;;;;;5090454;28;20135;-69
2024/03/15 00:17:14;;;;;;;9.52;4.57;;;13.70;99.90;;;;;;5091579;28;20034;-69
2024/03/15 00:19:40;;;;;;;12.32;5.03;;;13.70;99.90;;;;;;5083541;28;20035;-69
2024/03/15 00:22:06;;;;;;;11.63;5.50;;;13.70;99.90;;;;;;5087555;28;20032;-69
2024/03/15 00:24:33;;;;;;;10.57;5.38;;;13.70;99.90;;;;;;5093615;28;20024;-70
2024/03/15 00:26:59;;;;;;;12.77;5.22;;;13.70;99.90;;;;;;5066731;28;20519;-70
2024/03/15 00:29:27;;;;;;;9.50;4.82;;;13.70;99.90;;;;;;5076577;28;20742;-70
2024/03/15 00:31:53;;;;;;;14.63;5.30;;;13.70;99.90;;;;;;5079570;28;20032;-69
2024/03/15 00:34:19;;;;;;;9.15;5.03;;;13.70;99.90;;;;;;5084437;28;20044;-69
2024/03/15 00:36:47;;;;;;;9.07;5.10;;;13.70;99.90;;;;;;5078931;28;20032;-68
2024/03/15 00:39:14;;;;;;;10.18;5.30;;;13.70;99.90;;;;;;5074762;28;20028;-68
2024/03/15 00:41:40;;;;;;;10.83;4.87;;;13.70;99.90;;;;;;5082649;28;20055;-68
2024/03/15 00:44:06;;;;;;;8.82;5.00;;;13.70;99.90;;;;;;5078771;28;20887;-69
2024/03/15 00:46:32;;;;;;;9.90;5.20;;;13.70;99.90;;;;;;5070059;28;20029;-69
2024/03/15 00:48:58;;;;;;;8.25;4.95;;;13.70;99.90;;;;;;5073300;28;20041;-69
2024/03/15 00:51:23;;;;;;;8.98;5.45;;;13.70;99.90;;;;;;5061954;28;20028;-69
2024/03/15 00:53:50;;;;;;;11.00;5.03;;;13.70;99.90;;;;;;5057717;28;20079;-69
2024/03/15 00:56:16;;;;;;;12.23;6.10;;;13.70;99.90;;;;;;5079983;28;20136;-67
2024/03/15 00:58:42;;;;;;;6.03;4.50;;;13.60;99.90;;;;;;5077334;28;20110;-70
2024/03/15 01:01:07;;;;;;;8.35;4.88;;;13.70;99.90;;;;;;5073050;28;20040;-69
2024/03/15 01:03:33;;;;;;;7.90;5.13;;;13.60;99.90;;;;;;5080606;28;20036;-69
2024/03/15 01:05:59;;;;;;;8.52;5.43;;;13.60;99.90;;;;;;5081459;28;20020;-68
2024/03/15 01:08:25;;;;;;;8.55;5.28;;;13.60;99.90;;;;;;5067660;28;20052;-69
2024/03/15 01:10:52;;;;;;;10.05;5.47;;;13.70;99.90;;;;;;5079245;28;20035;-68
2024/03/15 01:13:18;;;;;;;9.63;5.50;;;13.60;99.90;;;;;;5079349;28;20059;-68
2024/03/15 01:15:44;;;;;;;11.52;5.80;;;13.60;99.90;;;;;;5081338;28;20567;-68
2024/03/15 01:18:10;;;;;;;10.93;5.75;;;13.60;99.90;;;;;;5078595;28;20111;-69
2024/03/15 01:20:36;;;;;;;8.13;5.00;;;13.60;99.90;;;;;;5070430;28;20112;-69
2024/03/15 01:23:02;;;;;;;8.98;5.20;;;13.60;99.90;;;;;;5080114;28;20154;-68
2024/03/15 01:25:29;;;;;;;12.50;5.45;;;13.60;99.90;;;;;;5078664;28;20082;-70
2024/03/15 01:27:58;;;;;;;11.07;5.75;;;13.60;99.90;;;;;;5077800;28;20432;-68
2024/03/15 01:30:24;;;;;;;8.60;5.35;;;13.50;99.90;;;;;;5079349;28;20064;-69
2024/03/15 01:32:50;;;;;;;12.25;5.07;;;13.50;99.90;;;;;;5076929;28;20119;-69
2024/03/15 01:35:19;;;;;;;10.48;6.07;;;13.50;99.90;;;;;;5076190;28;20128;-69
2024/03/15 01:37:45;;;;;;;11.32;5.75;;;13.50;99.90;;;;;;5061763;28;20029;-69
2024/03/15 01:40:15;;;;;;;7.35;5.00;;;13.60;99.90;;;;;;5074954;28;20035;-68
2024/03/15 01:42:41;;;;;;;7.68;5.40;;;13.50;99.90;;;;;;5076093;28;20050;-69
2024/03/15 01:45:09;;;;;;;11.45;5.63;;;13.50;99.90;;;;;;5069307;28;20064;-69
2024/03/15 01:47:36;;;;;;;9.85;5.57;;;13.50;99.90;;;;;;5074895;28;20509;-70
2024/03/15 01:50:02;;;;;;;10.13;5.38;;;13.50;99.90;;;;;;5075699;28;20106;-69
2024/03/15 01:52:32;;;;;;;9.85;5.80;;;13.50;99.90;;;;;;5076093;28;20036;-69
2024/03/15 01:54:58;;;;;;;14.57;5.43;;;13.60;99.90;;;;;;5063095;28;20074;-70
2024/03/15 01:57:24;;;;;;;9.32;5.07;;;13.60;99.90;;;;;;5085222;28;20120;-69
2024/03/15 01:59:50;;;;;;;9.95;5.95;;;13.60;99.90;;;;;;5082490;28;20102;-69
2024/03/15 02:02:16;;;;;;;9.73;6.07;;;13.60;99.90;;;;;;5079714;28;20028;-68
2024/03/15 02:04:53;;;;;;;10.75;6.18;;;13.60;99.90;;;;;;5077578;28;20031;-69
2024/03/15 02:07:27;;;;;;;7.97;5.30;;;13.60;99.90;;;;;;5067440;28;20113;-69
2024/03/15 02:09:56;;;;;;;7.43;5.38;;;13.60;99.90;;;;;;5059267;28;20037;-70
2024/03/15 02:12:23;;;;;;;9.05;5.45;;;13.60;99.90;;;;;;5053999;28;20041;-69
2024/03/15 02:14:49;;;;;;;13.77;6.05;;;13.60;99.90;;;;;;5081418;28;20112;-71
2024/03/15 02:17:16;;;;;;;6.93;5.43;;;13.60;99.90;;;;;;5084120;28;20040;-70
2024/03/15 02:19:42;;;;;;;13.20;5.88;;;13.60;99.90;;;;;;5084094;28;20032;-69
2024/03/15 02:22:07;;;;;;;9.65;5.70;;;13.60;99.90;;;;;;5075733;28;20033;-70
2024/03/15 02:24:33;;;;;;;13.75;5.93;;;13.60;99.90;;;;;;5072646;28;20064;-69
2024/03/15 02:27:00;;;;;;;11.60;6.03;;;13.50;99.90;;;;;;5079226;28;20023;-69
2024/03/15 02:29:26;;;;;;;12.00;5.53;;;13.60;99.90;;;;;;5066521;28;20404;-70
2024/03/15 02:31:52;;;;;;;11.48;6.75;;;13.60;99.90;;;;;;5085068;28;20560;-69
2024/03/15 02:34:18;;;;;;;10.00;6.05;;;13.60;99.90;;;;;;5077441;28;20043;-70
2024/03/15 02:36:44;;;;;;;13.10;6.07;;;13.50;99.90;;;;;;5076669;28;20393;-70
2024/03/15 02:39:16;;;;;;;11.13;6.28;;;13.60;99.90;;;;;;5059805;28;20100;-70
2024/03/15 02:41:45;;;;;;;11.05;6.32;;;13.50;99.90;;;;;;5079823;28;20063;-69
2024/03/15 02:44:11;;;;;;;11.50;6.47;;;13.60;99.90;;;;;;5082623;28;20028;-69
2024/03/15 02:46:37;;;;;;;10.80;5.95;;;13.60;99.90;;;;;;5090659;28;20032;-69
2024/03/15 02:49:03;;;;;;;8.60;5.40;;;13.60;99.90;;;;;;5072084;28;20745;-69
2024/03/15 02:51:29;;;;;;;9.80;6.60;;;13.60;99.90;;;;;;5081207;28;20028;-70
2024/03/15 02:53:55;;;;;;;10.18;7.20;;;13.60;99.90;;;;;;5081764;28;20083;-69
2024/03/15 02:56:21;;;;;;;8.88;6.47;;;13.60;99.90;;;;;;5076111;28;20056;-70
2024/03/15 02:58:47;;;;;;;10.23;5.88;;;13.70;99.90;;;;;;5081606;28;20050;-70
2024/03/15 03:01:13;;;;;;;8.45;6.10;;;13.60;99.90;;;;;;5074187;28;20067;-69
2024/03/15 03:03:38;;;;;;;15.35;7.10;;;13.60;99.90;;;;;;5072437;28;20093;-69
2024/03/15 03:06:08;;;;;;;9.35;6.22;;;13.60;99.90;;;;;;5062555;28;20303;-69
2024/03/15 03:08:35;;;;;;;10.70;5.68;;;13.60;99.90;;;;;;5082572;28;20040;-71
2024/03/15 03:11:01;;;;;;;10.15;6.32;;;13.60;99.90;;;;;;5077010;28;20065;-69
2024/03/15 03:13:27;;;;;;;14.00;6.20;;;13.60;99.90;;;;;;5071688;28;20395;-70
2024/03/15 03:15:53;;;;;;;9.90;6.53;;;13.50;99.90;;;;;;5091926;28;20039;-71
2024/03/15 03:18:18;;;;;;;13.07;6.13;;;13.50;99.90;;;;;;5085582;28;20032;-69
2024/03/15 03:20:45;;;;;;;8.63;6.10;;;13.50;99.90;;;;;;5091628;28;20085;-69
2024/03/15 03:23:11;;;;;;;14.05;6.95;;;13.50;99.90;;;;;;5079114;28;20111;-69
2024/03/15 03:25:37;;;;;;;11.32;6.30;;;13.40;99.90;;;;;;5090077;28;20028;-70
2024/03/15 03:28:03;;;;;;;10.30;6.45;;;13.40;99.90;;;;;;5084179;28;20032;-69
2024/03/15 03:30:28;;;;;;;12.38;6.13;;;13.40;99.90;;;;;;5062926;28;20032;-69
2024/03/15 03:32:54;;;;;;;10.93;6.47;;;13.30;99.90;;;;;;5088469;28;20035;-69
2024/03/15 03:35:19;;;;;;;12.43;6.70;;;13.30;99.90;;;;;;5076835;28;20070;-69
2024/03/15 03:37:45;;;;;;;11.90;6.68;;;13.20;99.90;;;;;;5082593;28;20457;-69
2024/03/15 03:40:16;;;;;;;11.35;6.72;;;13.20;99.90;;;;;;5076799;28;20030;-69
2024/03/15 03:42:43;;;;;;;11.77;6.95;;;13.20;99.90;;;;;;5082321;28;20028;-70
2024/03/15 03:45:15;;;;;;;14.55;7.95;;;13.30;99.90;;;;;;5090226;28;20616;-69
2024/03/15 03:47:43;;;;;;;12.98;7.20;;;13.20;99.90;;;;;;5087728;28;20131;-69
2024/03/15 03:50:11;;;;;;;15.43;7.88;;;13.10;99.90;;;;;;5081339;28;20041;-68
2024/03/15 03:52:39;;;;;;;;;;;13.20;99.90;;;;;;5070236;28;20032;-70
2024/03/15 03:55:07;;;;;;;15.85;7.25;;;13.10;99.90;;;;;;5075065;28;19921;-69
2024/03/15 03:57:34;;;;;;;13.88;6.82;;;13.10;99.90;;;;;;5053781;28;20028;-68
2024/03/15 04:00:14;;;;;;;14.98;8.13;;;13.00;99.90;;;;;;5067280;28;20040;-70
2024/03/15 04:02:43;;;;;;;13.40;8.05;;;13.00;99.90;;;;;;5087842;28;20531;-69
2024/03/15 04:05:09;;;;;;;13.50;7.38;;;13.00;99.90;;;;;;5080221;28;20040;-70
2024/03/15 04:07:36;;;;;;;11.95;7.65;;;13.00;99.90;;;;;;5082065;28;20618;-69
2024/03/15 04:10:02;;;;;;;12.52;8.25;;;12.90;99.90;;;;;;5080548;28;20088;-69
2024/03/15 04:12:27;;;;;;;16.40;7.65;;;12.90;99.90;;;;;;5083279;28;20395;-69
2024/03/15 04:14:54;;;;;;;14.65;8.18;;;12.90;99.90;;;;;;5074793;28;20067;-69
2024/03/15 04:17:19;;;;;;;15.75;8.38;;;12.90;99.90;;;;;;5078849;28;20024;-69
2024/03/15 04:19:49;;;;;;;12.27;7.78;;;12.90;99.90;;;;;;5095101;28;20043;-69
2024/03/15 04:22:14;;;;;;;16.02;9.63;;;12.80;99.90;;;;;;5081236;28;20448;-69
2024/03/15 04:24:41;;;;;;;15.13;8.57;;;12.80;99.90;;;;;;5068892;28;20028;-69
2024/03/15 04:27:10;;;;;;;14.43;7.95;;;12.80;99.90;;;;;;5086742;28;20462;-69
2024/03/15 04:29:36;;;;;;;12.13;7.82;;;12.80;99.90;;;;;;5064951;28;20413;-69
2024/03/15 04:32:08;;;;;;;16.60;8.40;;;12.80;99.90;;;;;;5082447;28;20047;-69
2024/03/15 04:34:37;;;;;;;14.65;8.82;;;12.80;99.90;;;;;;5077194;28;20118;-69
2024/03/15 04:37:14;;;;;;;14.20;8.27;;;12.80;99.90;;;;;;5081367;28;20032;-69
2024/03/15 04:39:39;;;;;;;13.48;8.57;;;12.70;99.90;;;;;;5086833;28;20032;-69
2024/03/15 04:42:05;;;;;;;14.50;8.85;;;12.70;99.90;;;;;;5060359;28;20786;-70
2024/03/15 04:44:36;;;;;;;18.45;8.48;;;12.70;99.90;;;;;;5063141;28;20051;-68
2024/03/15 04:47:08;;;;;;;16.80;8.40;;;12.70;99.90;;;;;;5064858;28;20028;-68
2024/03/15 04:49:34;;;;;;;12.43;8.25;;;12.70;99.90;;;;;;5082701;28;20090;-69
2024/03/15 04:52:00;;;;;;;15.48;8.43;;;12.70;99.90;;;;;;5078440;28;20028;-69
2024/03/15 04:54:26;;;;;;;11.65;7.28;;;12.60;99.90;;;;;;5084828;28;20105;-69
2024/03/15 04:56:52;;;;;;;11.93;7.70;;;12.60;99.90;;;;;;5063402;28;20051;-68
2024/03/15 04:59:19;;;;;;;15.73;8.50;;;12.60;99.90;;;;;;5085421;28;20028;-71
2024/03/15 05:01:45;;;;;;;15.57;8.52;;;12.60;99.90;;;;;;5078981;28;20053;-69
2024/03/15 05:04:10;;;;;;;17.38;8.80;;;12.70;99.90;;;;;;5079720;28;20105;-70
2024/03/15 05:06:36;;;;;;;11.88;8.02;;;12.60;99.90;;;;;;5083325;28;20043;-69
2024/03/15 05:09:04;;;;;;;14.70;8.30;;;12.70;99.90;;;;;;5085174;28;20048;-69
2024/03/15 05:11:30;;;;;;;;;;;12.70;99.90;;;;;;5083764;28;20528;-70
2024/03/15 05:13:55;;;;;;;17.75;7.95;;;12.70;99.90;;;;;;5079673;28;19920;-69
2024/03/15 05:16:22;;;;;;;13.68;8.20;;;12.70;99.90;;;;;;5079447;28;20039;-69
2024/03/15 05:18:48;;;;;;;15.05;7.75;;;12.60;99.90;;;;;;5085546;28;20035;-69
2024/03/15 05:21:13;;;;;;;16.95;7.68;;;12.70;99.90;;;;;;5082709;28;20432;-70
2024/03/15 05:23:39;;;;;;;15.82;7.38;;;12.60;99.90;;;;;;5082385;28;20109;-69
2024/03/15 05:26:05;;;;;;;16.58;7.97;;;12.60;99.90;;;;;;5059466;28;20039;-68
2024/03/15 05:28:33;;;;;;;12.52;8.18;;;12.70;99.90;;;;;;5083177;28;20039;-68
2024/03/15 05:30:59;;;;;;;15.48;8.23;;;12.60;99.90;;;;;;5087808;28;20035;-69
2024/03/15 05:33:25;;;;;;;12.85;7.70;;;12.60;99.90;;;;;;5068576;28;20028;-68
2024/03/15 05:35:51;;;;;;;14.20;8.15;;;12.70;99.90;;;;;;5080913;28;20035;-68
2024/03/15 05:38:17;;;;;;;13.65;6.93;;;12.60;99.90;;;;;;5085048;28;20025;-69
2024/03/15 05:40:43;;;;;;;13.27;7.82;;;12.60;99.90;;;;;;5070321;28;20031;-68
2024/03/15 05:43:08;;;;;;;13.15;7.68;;;12.70;99.90;;;;;;5083853;28;20086;-70
2024/03/15 05:45:35;;;;;;;14.65;7.72;;;12.70;99.90;;;;;;5067912;28;20032;-69
2024/03/15 05:48:01;;;;;;;13.68;8.13;;;12.60;99.90;;;;;;5079299;28;20424;-69
2024/03/15 05:50:26;;;;;;;12.75;7.78;;;12.60;99.90;;;;;;5078270;28;20532;-70
2024/03/15 05:52:52;;;;;;;12.63;8.48;;;12.60;99.90;;;;;;5068146;28;20031;-69
2024/03/15 05:55:18;;;;;;;13.25;7.50;;;12.60;99.90;;;;;;5080311;28;20032;-69
2024/03/15 05:57:44;;;;;;;13.25;7.15;;;12.60;99.90;;;;;;5078228;28;20035;-69
2024/03/15 06:00:12;;;;;;;11.98;7.68;;;12.60;99.90;;;;;;5058300;28;20028;-70
2024/03/15 06:02:39;;;;;;;14.32;7.80;;;12.60;99.90;;;;;;5077121;28;20045;-69
2024/03/15 06:05:05;;;;;;;15.30;8.45;;;12.60;99.90;;;;;;5075841;28;20048;-70
2024/03/15 06:07:32;;;;;;;12.98;7.60;;;12.70;99.90;;;;;;5079902;28;20390;-68
2024/03/15 06:09:57;;;;;;;12.32;7.43;;;12.80;99.90;;;;;;5079984;28;20097;-70
2024/03/15 06:12:27;;;;;;;11.50;7.47;;;12.70;99.90;;;;;;5078073;28;20032;-69
2024/03/15 06:14:56;;;;;;;12.48;7.00;;;12.70;99.90;;;;;;5088463;28;20126;-69
2024/03/15 06:17:22;;;;;;;16.23;7.78;;;12.70;99.90;;;;;;5065279;28;20032;-69
2024/03/15 06:19:52;;;;;;;12.80;6.97;;;12.70;99.90;;;;;;5081069;28;20043;-69
2024/03/15 06:22:18;;;;;;;17.95;9.70;;;12.80;99.90;;;;;;5060354;28;20040;-69
2024/03/15 06:24:45;;;;;;;14.57;7.90;;;12.80;99.90;;;;;;5077496;28;20036;-70
2024/03/15 06:27:13;;;;;;;13.50;7.57;;;12.80;99.90;;;;;;5081889;28;20503;-69
2024/03/15 06:29:40;;;;;;;13.65;7.50;;;12.90;99.90;;;;;;5058547;28;20043;-69
2024/03/15 06:32:07;;;;;;;11.18;7.10;;;12.90;99.90;;;;;;5076788;28;20036;-69
2024/03/15 06:34:34;;;;;;;12.45;7.00;;;13.00;99.90;;;;;;5081891;28;20035;-69
2024/03/15 06:37:02;;;;;;;13.33;7.20;;;13.00;99.90;;;;;;5078388;28;20558;-69
2024/03/15 06:42:20;;;;;;;11.32;7.53;;;13.10;99.90;;;;;;5085818;28;20046;-69
2024/03/15 06:44:50;;;;;;;14.15;7.53;;;13.10;99.90;;;;;;5062034;28;20036;-69
2024/03/15 06:47:28;;;;;;;14.30;7.70;;;13.20;99.90;;;;;;5054133;28;20467;-68
2024/03/15 06:50:06;;;;;;;12.98;6.70;;;13.30;99.90;;;;;;5079008;28;20051;-73
2024/03/15 06:52:35;;;;;;;10.88;7.22;;;13.30;99.90;;;;;;5074957;28;20067;-69
2024/03/15 06:55:07;;;;;;;13.98;7.32;;;13.30;99.90;;;;;;5073764;28;20151;-68
2024/03/15 06:57:33;;;;;;;15.20;7.38;;;13.30;99.90;;;;;;5079587;28;20039;-69
2024/03/15 07:00:08;;;;;;;12.73;7.43;;;13.50;99.90;;;;;;5079890;28;20357;-69
2024/03/15 07:02:34;;;;;;;12.98;7.80;;;13.40;99.90;;;;;;5081141;28;20097;-69
2024/03/15 07:04:59;;;;;;;13.88;7.22;;;13.30;99.90;;;;;;5082531;28;20340;-69
2024/03/15 07:07:26;;;;;;;14.40;7.53;;;13.40;99.90;;;;;;5077311;28;20781;-69
2024/03/15 07:09:51;;;;;;;10.52;6.80;;;13.30;99.90;;;;;;5076676;28;20388;-69
2024/03/15 07:12:17;;;;;;;13.95;7.40;;;13.30;99.90;;;;;;5083957;28;20028;-68
2024/03/15 07:14:43;;;;;;;11.68;6.90;;;13.40;99.90;;;;;;5080650;28;20075;-69
2024/03/15 07:17:09;;;;;;;12.52;7.20;;;13.50;99.90;;;;;;5074389;28;20043;-69
2024/03/15 07:19:35;;;;;;;13.98;7.13;;;13.50;99.90;;;;;;5080205;28;20029;-69
2024/03/15 07:22:01;;;;;;;11.70;7.47;;;13.50;99.90;;;;;;5076949;28;20067;-68
2024/03/15 07:24:27;;;;;;;12.27;7.47;;;13.60;99.90;;;;;;5082716;28;20020;-69
2024/03/15 07:26:53;;;;;;;13.75;8.18;;;13.60;99.90;;;;;;5076867;28;20020;-69
2024/03/15 07:29:19;;;;;;;16.08;7.93;;;13.60;99.90;;;;;;5074986;28;20382;-69
2024/03/15 07:31:45;;;;;;;12.63;7.57;;;13.70;99.90;;;;;;5065919;28;20106;-69
2024/03/15 07:34:13;;;;;;;12.63;7.07;;;13.70;99.90;;;;;;5082470;28;20616;-69
2024/03/15 07:36:38;;;;;;;15.07;7.07;;;13.70;99.90;;;;;;5075076;28;20059;-69
2024/03/15 07:39:04;;;;;;;9.77;6.57;;;13.80;99.90;;;;;;5082221;28;20063;-69
2024/03/15 07:41:32;;;;;;;15.93;7.30;;;13.80;99.90;;;;;;5073372;28;20048;-68
2024/03/15 07:43:58;;;;;;;13.02;7.10;;;13.80;99.90;;;;;;5080717;28;20029;-69
2024/03/15 07:46:24;;;;;;;13.02;7.05;;;13.80;99.90;;;;;;5080610;28;20035;-70
2024/03/15 07:48:50;;;;;;;13.90;6.85;;;13.90;99.90;;;;;;5073908;28;20035;-69
2024/03/15 07:51:16;;;;;;;13.85;6.72;;;14.00;99.90;;;;;;5080085;28;20036;-69
2024/03/15 07:53:41;;;;;;;10.60;6.88;;;14.00;99.90;;;;;;5082985;28;20236;-69
2024/03/15 07:56:09;;;;;;;12.82;6.80;;;14.00;99.90;;;;;;5083169;28;20028;-69
2024/03/15 07:58:37;;;;;;;14.85;6.20;;;14.10;99.90;;;;;;5064299;28;20050;-70
2024/03/15 08:01:09;;;;;;;12.88;7.28;;;14.10;99.90;;;;;;5063462;28;20119;-69
2024/03/15 08:03:35;;;;;;;11.93;6.93;;;14.20;99.90;;;;;;5066946;28;20493;-69
2024/03/15 08:06:05;;;;;;;15.10;6.90;;;14.30;99.90;;;;;;5086243;28;20038;-69
2024/03/15 08:08:31;;;;;;;11.65;6.18;;;14.40;99.90;;;;;;5086622;28;20035;-69
2024/03/15 08:10:56;;;;;;;13.02;6.40;;;14.40;99.90;;;;;;5082698;28;20036;-69
2024/03/15 08:13:25;;;;;;;13.75;6.35;;;14.50;99.90;;;;;;5084777;28;20036;-69
2024/03/15 08:16:18;;;;;;;14.20;6.28;;;14.50;99.90;;;;;;5088137;28;20455;-69
2024/03/15 08:18:47;;;;;;;9.20;5.70;;;14.70;99.90;;;;;;5086954;28;20044;-69
2024/03/15 08:21:14;;;;;;;10.93;5.45;;;14.70;99.90;;;;;;5083629;28;20050;-69
2024/03/15 08:23:42;;;;;;;16.30;6.23;;;14.70;99.90;;;;;;5081324;28;20039;-68
2024/03/15 08:26:09;;;;;;;12.77;5.93;;;14.80;99.90;;;;;;5085941;28;20264;-69
2024/03/15 08:28:35;;;;;;;8.65;4.70;;;14.80;99.90;;;;;;5070469;28;20116;-69
2024/03/15 08:31:01;;;;;;;10.05;5.40;;;14.90;99.90;;;;;;5081990;28;20064;-69
2024/03/15 08:33:27;;;;;;;10.43;5.28;;;14.90;99.90;;;;;;5076971;28;20537;-70
2024/03/15 08:35:53;;;;;;;8.85;4.82;;;14.90;99.90;;;;;;5079395;28;20404;-69
2024/03/15 08:38:19;;;;;;;10.40;5.35;;;15.00;99.90;;;;;;5078097;28;20633;-69
2024/03/15 08:40:45;;;;;;;15.35;5.50;;;15.00;99.90;;;;;;5070831;28;20037;-69
2024/03/15 08:43:12;;;;;;;9.95;5.22;;;15.10;99.90;;;;;;5069419;28;20039;-69
2024/03/15 08:45:38;;;;;;;11.95;5.85;;;15.10;99.90;;;;;;5077224;28;20109;-69
2024/03/15 08:48:04;;;;;;;14.20;5.28;;;15.20;99.90;;;;;;5094738;28;20055;-69
2024/03/15 08:50:33;;;;;;;9.43;5.20;;;15.20;99.90;;;;;;5061415;28;20032;-70
2024/03/15 08:52:59;;;;;;;9.32;5.20;;;15.20;99.90;;;;;;5069980;28;20028;-68
2024/03/15 08:55:25;;;;;;;11.85;4.93;;;15.30;99.90;;;;;;5085257;28;20089;-69
2024/03/15 08:57:51;;;;;;;8.27;4.53;;;15.40;99.90;;;;;;5082109;28;20039;-72
2024/03/15 09:00:17;;;;;;;8.90;5.03;;;15.40;99.90;;;;;;5080917;28;20048;-69
2024/03/15 09:02:43;;;;;;;12.60;5.00;;;15.40;99.90;;;;;;5080834;28;20027;-69
2024/03/15 09:05:09;;;;;;;11.73;5.22;;;15.40;99.90;;;;;;5058762;28;20041;-70
2024/03/15 09:07:39;;;;;;;11.30;4.97;;;15.50;99.90;;;;;;5067016;28;20052;-70
2024/03/15 09:10:14;;;;;;;13.52;5.28;;;15.50;99.90;;;;;;5078766;28;20524;-69
2024/03/15 09:12:44;;;;;;;10.32;4.80;;;15.50;99.90;;;;;;5079494;28;20040;-69
2024/03/15 09:15:13;;;;;;;16.38;6.65;;;15.60;99.90;;;;;;5078637;28;20136;-70
2024/03/15 09:17:40;;;;;;;14.45;6.05;;;15.50;99.90;;;;;;5079963;28;21156;-69
2024/03/15 09:20:20;;;;;;;9.13;5.45;;;15.50;99.90;;;;;;5082295;28;20131;-69
2024/03/15 09:22:50;;;;;;;8.68;5.10;;;15.50;99.90;;;;;;5086240;28;20597;-69
2024/03/15 09:25:19;;;;;;;11.57;5.38;;;15.60;99.90;;;;;;5068938;28;20031;-69
2024/03/15 09:27:48;;;;;;;9.80;4.90;;;15.60;99.90;;;;;;5078489;28;20036;-69
2024/03/15 09:30:17;;;;;;;14.25;5.28;;;15.60;99.90;;;;;;5082255;28;20032;-70
2024/03/15 09:32:48;;;;;;;12.38;5.00;;;15.60;99.90;;;;;;5085500;28;20403;-69
2024/03/15 09:35:14;;;;;;;13.02;5.55;;;15.60;99.90;;;;;;5085096;28;20040;-69
2024/03/15 09:37:50;;;;;;;9.38;5.05;;;15.60;99.90;;;;;;5065794;28;20106;-70
2024/03/15 09:40:21;;;;;;;19.05;5.57;;;15.50;99.90;;;;;;5079962;28;20028;-69
2024/03/15 09:42:52;;;;;;;9.80;5.40;;;15.50;99.90;;;;;;5088082;28;20047;-69
2024/03/15 09:45:21;;;;;;;12.20;5.45;;;15.50;99.90;;;;;;5077812;28;20124;-68
2024/03/15 09:47:52;;;;;;;12.27;5.55;;;15.40;99.90;;;;;;5088686;28;20038;-69
2024/03/15 09:50:21;;;;;;;11.00;5.55;;;15.30;99.90;;;;;;5085770;28;20020;-68
2024/03/15 09:52:57;;;;;;;10.68;5.40;;;15.30;99.90;;;;;;5080284;28;20517;-70
2024/03/15 09:55:23;;;;;;;10.90;5.18;;;15.30;99.90;;;;;;5084919;28;20076;-69
2024/03/15 09:57:50;;;;;;;13.65;5.85;;;15.20;99.90;;;;;;5080896;28;20119;-69
2024/03/15 10:00:21;;;;;;;10.68;5.25;;;15.20;99.90;;;;;;5080294;28;20603;-69
2024/03/15 10:02:47;;;;;;;14.57;5.25;;;15.30;99.90;;;;;;5083406;28;20024;-69
2024/03/15 10:05:17;;;;;;;20.23;5.88;;;15.20;99.90;;;;;;5089170;28;20044;-69
2024/03/15 10:07:43;;;;;;;8.10;5.07;;;15.30;99.90;;;;;;5094773;28;20050;-69
2024/03/15 10:10:14;;;;;;;8.35;4.57;;;15.30;99.90;;;;;;5084015;28;20047;-69
2024/03/15 10:12:44;;;;;;;8.35;4.90;;;15.40;99.90;;;;;;5077810;28;20705;-69
2024/03/15 10:15:12;;;;;;;7.28;4.80;;;15.20;99.90;;;;;;5079119;28;20028;-69
2024/03/15 10:17:39;;;;;;;7.32;4.85;;;15.20;99.90;;;;;;5079780;28;20423;-69
2024/03/15 10:20:26;;;;;;;7.55;4.40;;;15.20;99.90;;;;;;5086061;28;20032;-69
2024/03/15 10:22:56;;;;;;;9.75;4.88;;;15.20;99.90;;;;;;5090032;28;20059;-69
2024/03/15 10:25:24;;;;;;;8.65;4.97;;;15.20;99.90;;;;;;5077542;28;20055;-69
2024/03/15 10:27:53;;;;;;;9.50;5.38;;;15.20;99.90;;;;;;5071419;28;20516;-69
2024/03/15 10:30:22;;;;;;;8.30;5.30;;;15.20;99.90;;;;;;5091516;28;20032;-69
2024/03/15 10:33:03;;;;;;;12.63;4.75;;;15.10;99.90;;;;;;5084392;28;20165;-68
2024/03/15 10:35:28;;;;;;;8.02;4.97;;;15.10;99.90;;;;;;5081377;28;20059;-68
2024/03/15 10:37:55;;;;;;;12.00;5.03;;;15.10;99.90;;;;;;5082664;28;20059;-68
2024/03/15 10:40:25;;;;;;;10.93;5.13;;;15.10;99.90;;;;;;5082942;28;20035;-68
2024/03/15 10:42:56;;;;;;;6.57;4.90;;;15.10;99.90;;;;;;5083809;28;20032;-68
2024/03/15 10:45:25;;;;;;;13.50;5.65;;;15.10;99.90;;;;;;5085162;28;20028;-69
2024/03/15 10:47:54;;;;;;;9.30;4.97;;;15.10;99.90;;;;;;5081375;28;20034;-68
2024/03/15 10:50:22;;;;;;;9.50;4.93;;;15.10;99.90;;;;;;5089005;28;20041;-68
2024/03/15 10:52:49;;;;;;;;;;;15.10;99.90;;;;;;5085611;28;20577;-68
2024/03/15 10:55:23;;;;;;;10.85;5.13;;;15.20;99.90;;;;;;5076966;28;19977;-69
2024/03/15 10:57:52;;;;;;;7.65;4.07;;;15.30;99.90;;;;;;5092970;28;20060;-68
2024/03/15 11:00:24;;;;;;;9.80;5.13;;;15.30;99.90;;;;;;5087331;28;20032;-68
2024/03/15 11:02:51;;;;;;;9.20;4.85;;;15.40;99.90;;;;;;5083834;28;20033;-68
2024/03/15 11:05:27;;;;;;;9.75;4.68;;;15.50;99.90;;;;;;5082593;28;20489;-68
2024/03/15 11:08:08;;;;;;;12.38;5.13;;;15.50;99.90;;;;;;5085552;28;20505;-67
2024/03/15 11:10:37;;;;;;;8.48;4.32;;;15.50;99.90;;;;;;5083761;28;20047;-69
2024/03/15 11:13:03;;;;;;;10.98;5.03;;;15.70;99.90;;;;;;5073817;28;20046;-68
2024/03/15 11:15:37;;;;;;;8.32;4.70;;;15.60;99.90;;;;;;5070960;28;20040;-69
2024/03/15 11:18:10;;;;;;;14.13;4.88;;;15.70;99.90;;;;;;5096916;28;20490;-68
2024/03/15 11:20:46;;;;;;;7.55;4.75;;;15.70;99.90;;;;;;5093641;28;20520;-69
2024/03/15 11:23:13;;;;;;;7.45;4.03;;;15.70;99.90;;;;;;5080289;28;20040;-69
2024/03/15 11:25:40;;;;;;;8.30;4.40;;;15.80;99.90;;;;;;5068723;28;20039;-69
2024/03/15 11:28:06;;;;;;;11.82;4.20;;;16.10;99.90;;;;;;5067719;28;20066;-69
2024/03/15 11:30:31;;;;;;;16.85;4.78;;;16.30;99.90;;;;;;5086088;28;20481;-68
2024/03/15 11:32:57;;;;;;;10.60;5.03;;;16.30;99.90;;;;;;5086581;28;20107;-69
2024/03/15 11:35:23;;;;;;;6.57;4.18;;;16.20;99.90;;;;;;5083596;28;20032;-69
2024/03/15 11:37:55;;;;;;;8.23;4.25;;;16.30;99.90;;;;;;5087529;28;20028;-68
2024/03/15 11:40:24;;;;;;;9.98;4.22;;;16.30;99.90;;;;;;5080249;28;20035;-69
2024/03/15 11:42:50;;;;;;;8.32;3.97;;;16.30;99.90;;;;;;5073078;28;20055;-69
2024/03/15 11:45:16;;;;;;;8.23;4.65;;;16.40;99.90;;;;;;5067586;28;20035;-69
2024/03/15 11:47:41;;;;;;;8.85;3.90;;;16.40;99.90;;;;;;5083005;28;21183;-69
2024/03/15 11:50:13;;;;;;;9.57;4.38;;;16.40;99.90;;;;;;5080634;28;20029;-69
2024/03/15 11:52:39;;;;;;;9.82;4.13;;;16.40;99.90;;;;;;5085538;28;20424;-69
2024/03/15 11:55:06;;;;;;;4.88;3.38;;;16.50;99.90;;;;;;5090706;28;20036;-70
2024/03/15 11:57:34;;;;;;;8.77;4.03;;;16.60;99.90;;;;;;5088174;28;20404;-69
2024/03/15 12:00:07;;;;;;;9.52;4.00;;;16.80;99.90;;;;;;5081815;28;20318;-70
2024/03/15 12:02:33;;;;;;;5.90;3.80;;;16.90;99.90;;;;;;5083136;28;20027;-69
2024/03/15 12:04:58;;;;;;;10.40;4.32;;;17.00;99.90;;;;;;5083565;28;21851;-69
2024/03/15 12:07:24;;;;;;;8.20;3.60;;;17.00;99.90;;;;;;5083145;28;20126;-69
2024/03/15 12:09:50;;;;;;;4.70;3.65;;;16.90;99.90;;;;;;5086909;28;20042;-69
2024/03/15 12:12:16;;;;;;;7.25;3.58;;;16.70;99.90;;;;;;5073930;28;20043;-69
2024/03/15 12:14:43;;;;;;;6.72;3.55;;;16.70;99.90;;;;;;5086552;28;20111;-68
2024/03/15 12:17:13;;;;;;;8.18;4.35;;;16.70;99.90;;;;;;5082717;28;20028;-68
2024/03/15 12:19:41;;;;;;;7.00;3.53;;;16.70;99.90;;;;;;5082491;28;20487;-69
2024/03/15 12:22:08;;;;;;;6.88;4.05;;;16.70;99.90;;;;;;5084125;28;20035;-69
2024/03/15 12:24:33;;;;;;;8.35;4.00;;;16.60;99.90;;;;;;5085001;28;20032;-67
2024/03/15 12:26:59;;;;;;;11.32;4.10;;;16.60;99.90;;;;;;5085373;28;20035;-68
2024/03/15 12:29:25;;;;;;;7.35;3.78;;;16.70;99.90;;;;;;5084338;28;20099;-68
2024/03/15 12:31:50;;;;;;;7.75;3.97;;;16.90;99.90;;;;;;5075386;28;20136;-69
2024/03/15 12:34:16;;;;;;;7.40;3.85;;;17.10;99.90;;;;;;5087679;28;20132;-68
2024/03/15 12:36:41;;;;;;;7.80;3.63;;;17.20;99.90;;;;;;5083966;28;20085;-68
2024/03/15 12:39:09;;;;;;;5.97;3.70;;;17.30;99.90;;;;;;5078250;28;20040;-68
2024/03/15 12:41:35;;;;;;;6.95;3.30;;;17.40;99.90;;;;;;5079810;28;20107;-68
2024/03/15 12:44:01;;;;;;;8.13;3.58;;;17.40;99.90;;;;;;5085442;28;20123;-68